»·PEaware :: N851TB KLAX-KSNA

N851TB :: KLAX-KSNA

FLIGHT INFORMATION

Flight Status: Arrived
Operator: Privately registered:
United States
More flights under this callsign
Pilot: Adam P. (10444)
Aircraft: PIPER PA-32 SARATOGA
(PA32)
More flights by this aircraft type
Origin: KLAX Los Angeles Intl
United States
Destination: KSNA John Wayne-Orange Co
United States
More flights between these airports :: More routes between these airports
Route: +SLI7 SLI
File this flight plan on PilotEdge
Remarks: Request I-6 rating
Altitude:
(Current/Filed)
4,000ft
Speed:
(Current/Filed)
160kts
Departed: 12-Aug-17 01:06 PM
Arrived: 12-Aug-17 01:35 PM
Distance/Time
Traveled:
31nm/0:29
Distance/Time
To Go:
Arrived

Flight Plot

Page will automatically refresh every two minutes.


Map Options




Map Legend


Flown Route
Filed Route
Departure Airport
Arrival Airport
Navaid (VOR, NDB)
Fix

Horizontal Profiles

Position Reports

Time Latitude Longitude Heading Altitude Ground
Speed
12-Aug-17 12:20 33.933530 -118.396953 287 129ft 0kts
12-Aug-17 12:21 33.933538 -118.396947 287 129ft 0kts
12-Aug-17 12:22 33.933538 -118.396947 287 129ft 0kts
12-Aug-17 12:23 33.933538 -118.396947 287 129ft 0kts
12-Aug-17 12:24 33.933538 -118.396947 287 129ft 0kts
12-Aug-17 12:25 33.933538 -118.396947 287 129ft 0kts
12-Aug-17 12:26 33.933538 -118.396947 287 129ft 0kts
12-Aug-17 12:27 33.933538 -118.396947 287 129ft 0kts
12-Aug-17 12:28 33.933538 -118.396947 287 129ft 0kts
12-Aug-17 12:29 33.933538 -118.396947 287 129ft 0kts
12-Aug-17 12:30 33.933538 -118.396947 287 129ft 0kts
12-Aug-17 12:31 33.933538 -118.396947 287 129ft 0kts
12-Aug-17 12:32 33.933538 -118.396947 287 129ft 0kts
12-Aug-17 12:33 33.933538 -118.396947 287 129ft 0kts
12-Aug-17 12:34 33.933538 -118.396947 287 129ft 0kts
12-Aug-17 12:35 33.933538 -118.396947 287 129ft 0kts
12-Aug-17 12:36 33.933538 -118.396947 287 129ft 0kts
12-Aug-17 12:37 33.933538 -118.396947 287 129ft 0kts
12-Aug-17 12:38 33.933538 -118.396947 287 129ft 0kts
12-Aug-17 12:39 33.933538 -118.396947 287 129ft 0kts
12-Aug-17 12:40 33.933538 -118.396947 287 129ft 0kts
12-Aug-17 12:41 33.933538 -118.396947 287 129ft 0kts
12-Aug-17 12:42 33.933538 -118.396947 287 129ft 0kts
12-Aug-17 12:43 33.933538 -118.396947 287 129ft 0kts
12-Aug-17 12:44 33.933538 -118.396947 287 129ft 0kts
12-Aug-17 12:45 33.933538 -118.396947 287 129ft 0kts
12-Aug-17 12:46 33.933538 -118.396947 287 129ft 0kts
12-Aug-17 12:47 33.933538 -118.396947 287 129ft 0kts
12-Aug-17 12:48 33.933538 -118.396947 287 129ft 0kts
12-Aug-17 12:49 33.933538 -118.396947 287 129ft 0kts
12-Aug-17 12:50 33.933538 -118.396947 287 129ft 0kts
12-Aug-17 12:51 33.933538 -118.396947 287 129ft 0kts
12-Aug-17 12:52 33.933538 -118.396947 287 129ft 0kts
12-Aug-17 12:53 33.933538 -118.396947 287 129ft 0kts
12-Aug-17 12:54 33.933538 -118.396947 287 129ft 0kts
12-Aug-17 12:55 33.933538 -118.396947 287 129ft 0kts
12-Aug-17 12:56 33.933538 -118.396947 287 129ft 0kts
12-Aug-17 12:57 33.933538 -118.396947 287 129ft 0kts
12-Aug-17 12:58 33.933538 -118.396947 287 129ft 0kts
12-Aug-17 12:59 33.933538 -118.396947 287 129ft 0kts
12-Aug-17 13:00 33.933538 -118.396947 287 129ft 0kts
12-Aug-17 13:01 33.933538 -118.396947 287 129ft 0kts
12-Aug-17 13:02 33.933538 -118.396947 287 129ft 0kts
12-Aug-17 13:03 33.933538 -118.396947 287 129ft 0kts
12-Aug-17 13:04 33.934671 -118.396930 82 129ft 5kts
12-Aug-17 13:05 33.935204 -118.391803 86 129ft 14kts
12-Aug-17 13:06 33.935517 -118.388669 83 128ft 22kts
12-Aug-17 13:07 33.936571 -118.382760 352 129ft 4kts
12-Aug-17 13:08 33.936584 -118.382762 353 128ft 0kts
12-Aug-17 13:09 33.937113 -118.385001 263 129ft 45kts
12-Aug-17 13:10 33.933228 -118.414587 258 895ft 108kts
12-Aug-17 13:11 33.928780 -118.453398 241 1876ft 123kts
12-Aug-17 13:12 33.899758 -118.474417 176 2892ft 130kts
12-Aug-17 13:13 33.863635 -118.465482 171 3885ft 135kts
12-Aug-17 13:14 33.826047 -118.438644 141 3988ft 180kts
12-Aug-17 13:15 33.787203 -118.398167 141 3982ft 185kts
12-Aug-17 13:16 33.749012 -118.358807 141 3965ft 143kts
12-Aug-17 13:17 33.715351 -118.323991 141 3984ft 184kts
12-Aug-17 13:18 33.674985 -118.282337 141 4000ft 195kts
12-Aug-17 13:19 33.636224 -118.237064 105 4000ft 198kts
12-Aug-17 13:20 33.666608 -118.190502 42 4003ft 179kts
12-Aug-17 13:21 33.701617 -118.150328 42 4005ft 171kts
12-Aug-17 13:22 33.735536 -118.111364 43 4007ft 167kts
12-Aug-17 13:23 33.769051 -118.072767 44 4008ft 166kts
12-Aug-17 13:24 33.795249 -118.029878 100 4000ft 162kts
12-Aug-17 13:25 33.776613 -117.977455 121 3519ft 175kts
12-Aug-17 13:26 33.756926 -117.926799 114 3509ft 162kts
12-Aug-17 13:27 33.744138 -117.875712 99 3510ft 161kts
12-Aug-17 13:28 33.739209 -117.822358 94 3506ft 161kts
12-Aug-17 13:29 33.776154 -117.798069 10 3506ft 166kts
12-Aug-17 13:30 33.820844 -117.785782 10 3500ft 163kts
12-Aug-17 13:31 33.848102 -117.808027 238 3030ft 163kts
12-Aug-17 13:32 33.810852 -117.819946 188 2999ft 124kts
12-Aug-17 13:33 33.779220 -117.824074 188 3005ft 108kts
12-Aug-17 13:34 33.750421 -117.831449 198 2274ft 100kts
12-Aug-17 13:35 33.724604 -117.842807 199 1380ft 102kts
12-Aug-17 13:36 33.698964 -117.855044 202 554ft 86kts
12-Aug-17 13:37 33.679170 -117.866733 205 63ft 69kts
12-Aug-17 13:38 33.674457 -117.868548 162 59ft 0kts
12-Aug-17 13:39 33.674457 -117.868548 162 59ft 0kts
12-Aug-17 13:41 33.673745 -117.867240 118 60ft 1kts
12-Aug-17 13:42 33.673739 -117.867226 120 60ft 0kts
12-Aug-17 13:43 33.673658 -117.867044 120 60ft 8kts
12-Aug-17 13:44 33.671936 -117.868301 210 60ft 1kts
12-Aug-17 13:45 33.670934 -117.867616 31 60ft 3kts
12-Aug-17 13:46 33.670941 -117.867610 30 60ft 0kts

Navigation Log

Ident Type
1. KLAX Airport
2. SLI Navaid
3. KSNA Airport